sensor_id;sensor_type;location;lat;lon;timestamp;P1;durP1;ratioP1;P2;durP2;ratioP2
53533;SDS011;39421;53.204;6.568;2023-08-17T00:02:12;5.78;;;1.80;;
53533;SDS011;39421;53.204;6.568;2023-08-17T00:04:38;4.20;;;1.50;;
53533;SDS011;39421;53.204;6.568;2023-08-17T00:07:05;5.60;;;1.70;;
53533;SDS011;39421;53.204;6.568;2023-08-17T00:09:31;5.03;;;1.63;;
53533;SDS011;39421;53.204;6.568;2023-08-17T00:11:57;4.55;;;1.55;;
53533;SDS011;39421;53.204;6.568;2023-08-17T00:14:24;5.25;;;1.60;;
53533;SDS011;39421;53.204;6.568;2023-08-17T00:16:50;4.50;;;1.50;;
53533;SDS011;39421;53.204;6.568;2023-08-17T00:19:16;4.75;;;1.50;;
53533;SDS011;39421;53.204;6.568;2023-08-17T00:21:44;4.80;;;1.60;;
53533;SDS011;39421;53.204;6.568;2023-08-17T00:24:10;5.22;;;1.65;;
53533;SDS011;39421;53.204;6.568;2023-08-17T00:26:37;5.22;;;1.50;;
53533;SDS011;39421;53.204;6.568;2023-08-17T00:29:03;6.90;;;1.67;;
53533;SDS011;39421;53.204;6.568;2023-08-17T00:31:29;6.18;;;1.75;;
53533;SDS011;39421;53.204;6.568;2023-08-17T00:33:55;6.00;;;1.60;;
53533;SDS011;39421;53.204;6.568;2023-08-17T00:36:22;5.60;;;1.52;;
53533;SDS011;39421;53.204;6.568;2023-08-17T00:38:48;5.10;;;1.80;;
53533;SDS011;39421;53.204;6.568;2023-08-17T00:41:14;6.20;;;1.70;;
53533;SDS011;39421;53.204;6.568;2023-08-17T00:43:40;5.40;;;1.67;;
53533;SDS011;39421;53.204;6.568;2023-08-17T00:46:06;4.20;;;1.45;;
53533;SDS011;39421;53.204;6.568;2023-08-17T00:48:32;5.28;;;1.65;;
53533;SDS011;39421;53.204;6.568;2023-08-17T00:50:59;4.90;;;1.58;;
53533;SDS011;39421;53.204;6.568;2023-08-17T00:53:26;4.28;;;1.63;;
53533;SDS011;39421;53.204;6.568;2023-08-17T00:55:53;4.88;;;1.60;;
53533;SDS011;39421;53.204;6.568;2023-08-17T00:58:22;4.70;;;1.63;;
53533;SDS011;39421;53.204;6.568;2023-08-17T01:00:48;5.65;;;1.70;;
53533;SDS011;39421;53.204;6.568;2023-08-17T01:03:15;3.67;;;1.55;;
53533;SDS011;39421;53.204;6.568;2023-08-17T01:05:41;3.88;;;1.75;;
53533;SDS011;39421;53.204;6.568;2023-08-17T01:08:07;5.68;;;1.80;;
53533;SDS011;39421;53.204;6.568;2023-08-17T01:10:47;5.43;;;1.60;;
53533;SDS011;39421;53.204;6.568;2023-08-17T01:13:30;5.00;;;1.52;;
53533;SDS011;39421;53.204;6.568;2023-08-17T01:15:59;4.53;;;1.40;;
53533;SDS011;39421;53.204;6.568;2023-08-17T01:18:37;5.93;;;1.80;;
53533;SDS011;39421;53.204;6.568;2023-08-17T01:21:06;4.95;;;1.67;;
53533;SDS011;39421;53.204;6.568;2023-08-17T01:23:34;5.43;;;1.70;;
53533;SDS011;39421;53.204;6.568;2023-08-17T01:26:00;4.65;;;1.63;;
53533;SDS011;39421;53.204;6.568;2023-08-17T01:28:26;5.43;;;1.45;;
53533;SDS011;39421;53.204;6.568;2023-08-17T01:30:55;3.28;;;1.60;;
53533;SDS011;39421;53.204;6.568;2023-08-17T01:33:24;6.05;;;1.70;;
53533;SDS011;39421;53.204;6.568;2023-08-17T01:38:31;4.47;;;1.70;;
53533;SDS011;39421;53.204;6.568;2023-08-17T01:40:58;5.13;;;1.70;;
53533;SDS011;39421;53.204;6.568;2023-08-17T01:43:26;4.53;;;1.60;;
53533;SDS011;39421;53.204;6.568;2023-08-17T01:45:53;6.18;;;1.63;;
53533;SDS011;39421;53.204;6.568;2023-08-17T01:48:19;5.93;;;1.88;;
53533;SDS011;39421;53.204;6.568;2023-08-17T01:50:45;6.65;;;1.80;;
53533;SDS011;39421;53.204;6.568;2023-08-17T01:53:11;5.65;;;1.80;;
53533;SDS011;39421;53.204;6.568;2023-08-17T01:55:39;5.60;;;1.85;;
53533;SDS011;39421;53.204;6.568;2023-08-17T01:58:05;4.18;;;1.60;;
53533;SDS011;39421;53.204;6.568;2023-08-17T02:00:31;5.82;;;1.90;;
53533;SDS011;39421;53.204;6.568;2023-08-17T02:02:57;4.53;;;1.60;;
53533;SDS011;39421;53.204;6.568;2023-08-17T02:05:23;4.60;;;1.70;;
53533;SDS011;39421;53.204;6.568;2023-08-17T02:07:50;7.45;;;2.03;;
53533;SDS011;39421;53.204;6.568;2023-08-17T02:10:16;6.88;;;2.30;;
53533;SDS011;39421;53.204;6.568;2023-08-17T02:12:42;6.72;;;1.95;;
53533;SDS011;39421;53.204;6.568;2023-08-17T02:15:08;6.43;;;2.10;;
53533;SDS011;39421;53.204;6.568;2023-08-17T02:17:35;5.85;;;1.90;;
53533;SDS011;39421;53.204;6.568;2023-08-17T02:20:01;6.10;;;2.20;;
53533;SDS011;39421;53.204;6.568;2023-08-17T02:22:29;6.50;;;2.00;;
53533;SDS011;39421;53.204;6.568;2023-08-17T02:24:55;6.18;;;2.22;;
53533;SDS011;39421;53.204;6.568;2023-08-17T02:27:21;7.00;;;1.95;;
53533;SDS011;39421;53.204;6.568;2023-08-17T02:29:47;6.97;;;2.28;;
53533;SDS011;39421;53.204;6.568;2023-08-17T02:32:13;4.30;;;1.70;;
53533;SDS011;39421;53.204;6.568;2023-08-17T02:34:39;6.28;;;1.80;;
53533;SDS011;39421;53.204;6.568;2023-08-17T02:37:05;6.22;;;1.80;;
53533;SDS011;39421;53.204;6.568;2023-08-17T02:39:31;6.85;;;1.80;;
53533;SDS011;39421;53.204;6.568;2023-08-17T02:41:57;5.33;;;1.70;;
53533;SDS011;39421;53.204;6.568;2023-08-17T02:44:24;5.45;;;1.60;;
53533;SDS011;39421;53.204;6.568;2023-08-17T02:46:50;5.32;;;1.80;;
53533;SDS011;39421;53.204;6.568;2023-08-17T02:49:16;5.45;;;1.70;;
53533;SDS011;39421;53.204;6.568;2023-08-17T02:51:42;5.22;;;1.75;;
53533;SDS011;39421;53.204;6.568;2023-08-17T02:54:08;5.93;;;1.80;;
53533;SDS011;39421;53.204;6.568;2023-08-17T02:56:34;4.63;;;1.60;;
53533;SDS011;39421;53.204;6.568;2023-08-17T02:59:00;5.23;;;1.70;;
53533;SDS011;39421;53.204;6.568;2023-08-17T03:01:26;6.75;;;1.90;;
53533;SDS011;39421;53.204;6.568;2023-08-17T03:03:54;4.93;;;1.65;;
53533;SDS011;39421;53.204;6.568;2023-08-17T03:06:20;6.43;;;1.70;;
53533;SDS011;39421;53.204;6.568;2023-08-17T03:08:46;6.57;;;1.88;;
53533;SDS011;39421;53.204;6.568;2023-08-17T03:11:12;6.53;;;2.00;;
53533;SDS011;39421;53.204;6.568;2023-08-17T03:13:38;5.22;;;1.70;;
53533;SDS011;39421;53.204;6.568;2023-08-17T03:16:04;4.43;;;1.63;;
53533;SDS011;39421;53.204;6.568;2023-08-17T03:18:30;4.57;;;1.60;;
53533;SDS011;39421;53.204;6.568;2023-08-17T03:20:56;5.50;;;1.70;;
53533;SDS011;39421;53.204;6.568;2023-08-17T03:23:22;5.95;;;1.70;;
53533;SDS011;39421;53.204;6.568;2023-08-17T03:25:52;5.55;;;1.70;;
53533;SDS011;39421;53.204;6.568;2023-08-17T03:28:18;5.30;;;1.65;;
53533;SDS011;39421;53.204;6.568;2023-08-17T03:30:44;5.20;;;1.70;;
53533;SDS011;39421;53.204;6.568;2023-08-17T03:33:10;5.63;;;1.63;;
53533;SDS011;39421;53.204;6.568;2023-08-17T03:35:36;4.65;;;1.73;;
53533;SDS011;39421;53.204;6.568;2023-08-17T03:38:03;5.60;;;1.80;;
53533;SDS011;39421;53.204;6.568;2023-08-17T03:40:29;6.53;;;1.90;;
53533;SDS011;39421;53.204;6.568;2023-08-17T03:42:55;6.00;;;1.70;;
53533;SDS011;39421;53.204;6.568;2023-08-17T03:45:21;5.45;;;1.77;;
53533;SDS011;39421;53.204;6.568;2023-08-17T03:47:47;5.07;;;1.67;;
53533;SDS011;39421;53.204;6.568;2023-08-17T03:50:13;7.53;;;1.93;;
53533;SDS011;39421;53.204;6.568;2023-08-17T03:52:39;5.15;;;1.70;;
53533;SDS011;39421;53.204;6.568;2023-08-17T03:55:05;5.00;;;1.60;;
53533;SDS011;39421;53.204;6.568;2023-08-17T03:57:32;6.43;;;1.80;;
53533;SDS011;39421;53.204;6.568;2023-08-17T03:59:58;5.10;;;1.80;;
53533;SDS011;39421;53.204;6.568;2023-08-17T04:02:24;6.22;;;1.60;;
53533;SDS011;39421;53.204;6.568;2023-08-17T04:04:50;6.07;;;1.90;;
53533;SDS011;39421;53.204;6.568;2023-08-17T04:07:23;6.07;;;1.73;;
53533;SDS011;39421;53.204;6.568;2023-08-17T04:09:49;5.07;;;1.70;;
53533;SDS011;39421;53.204;6.568;2023-08-17T04:12:15;6.22;;;1.80;;
53533;SDS011;39421;53.204;6.568;2023-08-17T04:14:41;6.53;;;2.05;;
53533;SDS011;39421;53.204;6.568;2023-08-17T04:17:07;5.50;;;1.70;;
53533;SDS011;39421;53.204;6.568;2023-08-17T04:19:34;5.40;;;1.80;;
53533;SDS011;39421;53.204;6.568;2023-08-17T04:22:00;5.80;;;1.70;;
53533;SDS011;39421;53.204;6.568;2023-08-17T04:24:26;7.13;;;2.08;;
53533;SDS011;39421;53.204;6.568;2023-08-17T04:26:52;5.53;;;1.80;;
53533;SDS011;39421;53.204;6.568;2023-08-17T04:29:18;4.28;;;1.80;;
53533;SDS011;39421;53.204;6.568;2023-08-17T04:31:44;6.40;;;1.90;;
53533;SDS011;39421;53.204;6.568;2023-08-17T04:34:10;6.87;;;2.20;;
53533;SDS011;39421;53.204;6.568;2023-08-17T04:36:37;5.95;;;1.85;;
53533;SDS011;39421;53.204;6.568;2023-08-17T04:39:03;6.53;;;1.98;;
53533;SDS011;39421;53.204;6.568;2023-08-17T04:41:29;5.37;;;1.70;;
53533;SDS011;39421;53.204;6.568;2023-08-17T04:43:55;6.70;;;1.98;;
53533;SDS011;39421;53.204;6.568;2023-08-17T04:46:22;6.35;;;2.08;;
53533;SDS011;39421;53.204;6.568;2023-08-17T04:48:48;5.40;;;1.92;;
53533;SDS011;39421;53.204;6.568;2023-08-17T04:51:15;6.32;;;1.90;;
53533;SDS011;39421;53.204;6.568;2023-08-17T04:53:41;5.30;;;1.90;;
53533;SDS011;39421;53.204;6.568;2023-08-17T04:56:07;6.90;;;1.95;;
53533;SDS011;39421;53.204;6.568;2023-08-17T04:58:33;6.38;;;1.90;;
53533;SDS011;39421;53.204;6.568;2023-08-17T05:00:59;5.72;;;2.05;;
53533;SDS011;39421;53.204;6.568;2023-08-17T05:03:25;6.68;;;2.10;;
53533;SDS011;39421;53.204;6.568;2023-08-17T05:05:52;5.22;;;1.80;;
53533;SDS011;39421;53.204;6.568;2023-08-17T05:08:18;6.88;;;2.00;;
53533;SDS011;39421;53.204;6.568;2023-08-17T05:10:46;6.30;;;2.10;;
53533;SDS011;39421;53.204;6.568;2023-08-17T05:13:12;6.63;;;2.10;;
53533;SDS011;39421;53.204;6.568;2023-08-17T05:15:38;6.70;;;2.10;;
53533;SDS011;39421;53.204;6.568;2023-08-17T05:18:05;5.60;;;1.90;;
53533;SDS011;39421;53.204;6.568;2023-08-17T05:20:31;7.97;;;2.05;;
53533;SDS011;39421;53.204;6.568;2023-08-17T05:22:57;6.22;;;1.90;;
53533;SDS011;39421;53.204;6.568;2023-08-17T05:25:23;6.97;;;2.07;;
53533;SDS011;39421;53.204;6.568;2023-08-17T05:27:51;6.40;;;1.80;;
53533;SDS011;39421;53.204;6.568;2023-08-17T05:30:17;6.75;;;1.90;;
53533;SDS011;39421;53.204;6.568;2023-08-17T05:32:43;5.63;;;1.90;;
53533;SDS011;39421;53.204;6.568;2023-08-17T05:35:11;4.07;;;1.70;;
53533;SDS011;39421;53.204;6.568;2023-08-17T05:37:37;6.37;;;1.90;;
53533;SDS011;39421;53.204;6.568;2023-08-17T05:40:03;5.68;;;2.03;;
53533;SDS011;39421;53.204;6.568;2023-08-17T05:42:30;5.22;;;1.83;;
53533;SDS011;39421;53.204;6.568;2023-08-17T05:44:56;7.18;;;1.80;;
53533;SDS011;39421;53.204;6.568;2023-08-17T05:47:22;5.73;;;1.80;;
53533;SDS011;39421;53.204;6.568;2023-08-17T05:49:48;6.30;;;2.00;;
53533;SDS011;39421;53.204;6.568;2023-08-17T05:52:14;5.18;;;1.70;;
53533;SDS011;39421;53.204;6.568;2023-08-17T05:54:40;5.20;;;1.70;;
53533;SDS011;39421;53.204;6.568;2023-08-17T05:57:07;7.20;;;1.60;;
53533;SDS011;39421;53.204;6.568;2023-08-17T05:59:35;5.75;;;1.63;;
53533;SDS011;39421;53.204;6.568;2023-08-17T06:02:01;6.60;;;1.73;;
53533;SDS011;39421;53.204;6.568;2023-08-17T06:04:27;5.30;;;1.60;;
53533;SDS011;39421;53.204;6.568;2023-08-17T06:06:53;6.23;;;1.70;;
53533;SDS011;39421;53.204;6.568;2023-08-17T06:09:19;5.10;;;1.30;;
53533;SDS011;39421;53.204;6.568;2023-08-17T06:11:45;6.88;;;2.00;;
53533;SDS011;39421;53.204;6.568;2023-08-17T06:14:11;5.38;;;1.88;;
53533;SDS011;39421;53.204;6.568;2023-08-17T06:16:37;5.13;;;1.60;;
53533;SDS011;39421;53.204;6.568;2023-08-17T06:19:04;5.53;;;1.60;;
53533;SDS011;39421;53.204;6.568;2023-08-17T06:21:30;6.43;;;1.70;;
53533;SDS011;39421;53.204;6.568;2023-08-17T06:23:56;5.77;;;1.70;;
53533;SDS011;39421;53.204;6.568;2023-08-17T06:26:22;7.07;;;1.70;;
53533;SDS011;39421;53.204;6.568;2023-08-17T06:28:48;5.70;;;1.83;;
53533;SDS011;39421;53.204;6.568;2023-08-17T06:31:14;6.40;;;1.70;;
53533;SDS011;39421;53.204;6.568;2023-08-17T06:33:41;6.25;;;1.70;;
53533;SDS011;39421;53.204;6.568;2023-08-17T06:36:07;6.88;;;1.75;;
53533;SDS011;39421;53.204;6.568;2023-08-17T06:38:33;6.37;;;1.60;;
53533;SDS011;39421;53.204;6.568;2023-08-17T06:40:59;5.80;;;1.75;;
53533;SDS011;39421;53.204;6.568;2023-08-17T06:43:25;6.93;;;1.50;;
53533;SDS011;39421;53.204;6.568;2023-08-17T06:45:51;4.97;;;1.50;;
53533;SDS011;39421;53.204;6.568;2023-08-17T06:48:17;5.75;;;1.50;;
53533;SDS011;39421;53.204;6.568;2023-08-17T06:50:43;4.90;;;1.50;;
53533;SDS011;39421;53.204;6.568;2023-08-17T06:53:09;5.35;;;1.50;;
53533;SDS011;39421;53.204;6.568;2023-08-17T06:55:35;7.20;;;1.60;;
53533;SDS011;39421;53.204;6.568;2023-08-17T06:58:02;6.22;;;1.50;;
53533;SDS011;39421;53.204;6.568;2023-08-17T07:00:28;6.50;;;1.73;;
53533;SDS011;39421;53.204;6.568;2023-08-17T07:02:54;5.35;;;1.50;;
53533;SDS011;39421;53.204;6.568;2023-08-17T07:05:20;5.63;;;1.50;;
53533;SDS011;39421;53.204;6.568;2023-08-17T07:07:46;5.82;;;1.52;;
53533;SDS011;39421;53.204;6.568;2023-08-17T07:10:13;6.93;;;1.60;;
53533;SDS011;39421;53.204;6.568;2023-08-17T07:12:39;5.55;;;1.70;;
53533;SDS011;39421;53.204;6.568;2023-08-17T07:15:05;4.40;;;1.30;;
53533;SDS011;39421;53.204;6.568;2023-08-17T07:17:32;4.20;;;1.40;;
53533;SDS011;39421;53.204;6.568;2023-08-17T07:19:59;5.97;;;1.60;;
53533;SDS011;39421;53.204;6.568;2023-08-17T07:22:25;5.97;;;1.40;;
53533;SDS011;39421;53.204;6.568;2023-08-17T07:24:51;5.05;;;1.30;;
53533;SDS011;39421;53.204;6.568;2023-08-17T07:27:18;6.20;;;1.48;;
53533;SDS011;39421;53.204;6.568;2023-08-17T07:29:46;4.53;;;1.37;;
53533;SDS011;39421;53.204;6.568;2023-08-17T07:32:12;5.55;;;1.40;;
53533;SDS011;39421;53.204;6.568;2023-08-17T07:34:38;4.18;;;1.10;;
53533;SDS011;39421;53.204;6.568;2023-08-17T07:37:04;4.82;;;1.20;;
53533;SDS011;39421;53.204;6.568;2023-08-17T07:39:31;4.28;;;1.30;;
53533;SDS011;39421;53.204;6.568;2023-08-17T07:41:57;4.65;;;1.38;;
53533;SDS011;39421;53.204;6.568;2023-08-17T07:44:23;4.27;;;1.30;;
53533;SDS011;39421;53.204;6.568;2023-08-17T07:46:49;4.28;;;1.40;;
53533;SDS011;39421;53.204;6.568;2023-08-17T07:49:15;3.35;;;1.25;;
53533;SDS011;39421;53.204;6.568;2023-08-17T07:51:41;6.82;;;1.52;;
53533;SDS011;39421;53.204;6.568;2023-08-17T07:54:08;3.45;;;1.25;;
53533;SDS011;39421;53.204;6.568;2023-08-17T07:56:34;5.27;;;1.40;;
53533;SDS011;39421;53.204;6.568;2023-08-17T07:59:00;10.77;;;1.70;;
53533;SDS011;39421;53.204;6.568;2023-08-17T08:01:26;6.43;;;1.43;;
53533;SDS011;39421;53.204;6.568;2023-08-17T08:03:52;5.10;;;1.50;;
53533;SDS011;39421;53.204;6.568;2023-08-17T08:06:18;5.00;;;1.23;;
53533;SDS011;39421;53.204;6.568;2023-08-17T08:08:45;4.68;;;1.10;;
53533;SDS011;39421;53.204;6.568;2023-08-17T08:11:11;5.18;;;1.50;;
53533;SDS011;39421;53.204;6.568;2023-08-17T08:13:37;4.40;;;1.13;;
53533;SDS011;39421;53.204;6.568;2023-08-17T08:16:04;4.60;;;1.30;;
53533;SDS011;39421;53.204;6.568;2023-08-17T08:18:30;4.93;;;1.25;;
53533;SDS011;39421;53.204;6.568;2023-08-17T08:20:56;5.20;;;1.50;;
53533;SDS011;39421;53.204;6.568;2023-08-17T08:23:22;4.20;;;1.30;;
53533;SDS011;39421;53.204;6.568;2023-08-17T08:25:48;3.63;;;1.20;;
53533;SDS011;39421;53.204;6.568;2023-08-17T08:28:14;3.37;;;1.20;;
53533;SDS011;39421;53.204;6.568;2023-08-17T08:30:40;5.30;;;1.30;;
53533;SDS011;39421;53.204;6.568;2023-08-17T08:33:07;4.60;;;1.40;;
53533;SDS011;39421;53.204;6.568;2023-08-17T08:35:33;3.87;;;1.10;;
53533;SDS011;39421;53.204;6.568;2023-08-17T08:37:59;5.70;;;1.27;;
53533;SDS011;39421;53.204;6.568;2023-08-17T08:40:28;4.35;;;1.38;;
53533;SDS011;39421;53.204;6.568;2023-08-17T08:42:56;3.70;;;1.20;;
53533;SDS011;39421;53.204;6.568;2023-08-17T08:45:22;4.78;;;1.40;;
53533;SDS011;39421;53.204;6.568;2023-08-17T08:47:49;4.30;;;1.30;;
53533;SDS011;39421;53.204;6.568;2023-08-17T08:50:19;5.15;;;1.33;;
53533;SDS011;39421;53.204;6.568;2023-08-17T08:52:58;3.80;;;1.30;;
53533;SDS011;39421;53.204;6.568;2023-08-17T08:55:26;7.13;;;1.40;;
53533;SDS011;39421;53.204;6.568;2023-08-17T08:57:53;4.80;;;1.27;;
53533;SDS011;39421;53.204;6.568;2023-08-17T09:00:20;5.20;;;1.20;;
53533;SDS011;39421;53.204;6.568;2023-08-17T09:02:46;5.25;;;1.40;;
53533;SDS011;39421;53.204;6.568;2023-08-17T09:05:12;6.10;;;1.20;;
53533;SDS011;39421;53.204;6.568;2023-08-17T09:07:39;4.75;;;1.10;;
53533;SDS011;39421;53.204;6.568;2023-08-17T09:10:05;4.60;;;1.23;;
53533;SDS011;39421;53.204;6.568;2023-08-17T09:12:32;4.50;;;1.10;;
53533;SDS011;39421;53.204;6.568;2023-08-17T09:14:58;4.13;;;1.20;;
53533;SDS011;39421;53.204;6.568;2023-08-17T09:17:24;5.57;;;1.30;;
53533;SDS011;39421;53.204;6.568;2023-08-17T09:19:51;4.05;;;1.10;;
53533;SDS011;39421;53.204;6.568;2023-08-17T09:22:23;4.07;;;1.20;;
53533;SDS011;39421;53.204;6.568;2023-08-17T09:24:50;4.57;;;1.20;;
53533;SDS011;39421;53.204;6.568;2023-08-17T09:27:16;5.63;;;1.20;;
53533;SDS011;39421;53.204;6.568;2023-08-17T09:29:43;3.63;;;1.20;;
53533;SDS011;39421;53.204;6.568;2023-08-17T09:32:11;3.80;;;1.10;;
53533;SDS011;39421;53.204;6.568;2023-08-17T09:34:37;3.28;;;1.30;;
53533;SDS011;39421;53.204;6.568;2023-08-17T09:37:03;5.25;;;1.40;;
53533;SDS011;39421;53.204;6.568;2023-08-17T09:39:30;4.25;;;1.33;;
53533;SDS011;39421;53.204;6.568;2023-08-17T09:41:57;3.45;;;1.33;;
53533;SDS011;39421;53.204;6.568;2023-08-17T09:44:23;4.60;;;1.20;;
53533;SDS011;39421;53.204;6.568;2023-08-17T09:46:49;4.82;;;1.50;;
53533;SDS011;39421;53.204;6.568;2023-08-17T09:49:16;5.47;;;1.38;;
53533;SDS011;39421;53.204;6.568;2023-08-17T09:51:44;5.57;;;1.27;;
53533;SDS011;39421;53.204;6.568;2023-08-17T09:54:43;4.03;;;1.33;;
53533;SDS011;39421;53.204;6.568;2023-08-17T09:57:02;5.07;;;1.38;;
53533;SDS011;39421;53.204;6.568;2023-08-17T09:59:29;5.40;;;1.50;;
53533;SDS011;39421;53.204;6.568;2023-08-17T10:01:55;4.43;;;1.30;;
53533;SDS011;39421;53.204;6.568;2023-08-17T10:04:23;6.05;;;1.30;;
53533;SDS011;39421;53.204;6.568;2023-08-17T10:06:54;4.77;;;1.33;;
53533;SDS011;39421;53.204;6.568;2023-08-17T10:09:23;5.45;;;1.13;;
53533;SDS011;39421;53.204;6.568;2023-08-17T10:11:54;4.80;;;1.48;;
53533;SDS011;39421;53.204;6.568;2023-08-17T10:14:26;4.22;;;1.30;;
53533;SDS011;39421;53.204;6.568;2023-08-17T10:17:02;5.07;;;1.55;;
53533;SDS011;39421;53.204;6.568;2023-08-17T10:19:33;6.68;;;1.40;;
53533;SDS011;39421;53.204;6.568;2023-08-17T10:22:06;4.75;;;1.38;;
53533;SDS011;39421;53.204;6.568;2023-08-17T10:24:33;4.03;;;1.23;;
53533;SDS011;39421;53.204;6.568;2023-08-17T10:27:02;5.07;;;1.35;;
53533;SDS011;39421;53.204;6.568;2023-08-17T10:29:28;4.10;;;1.40;;
53533;SDS011;39421;53.204;6.568;2023-08-17T10:31:55;4.45;;;1.30;;
53533;SDS011;39421;53.204;6.568;2023-08-17T10:34:21;6.38;;;1.33;;
53533;SDS011;39421;53.204;6.568;2023-08-17T10:36:47;6.87;;;1.63;;
53533;SDS011;39421;53.204;6.568;2023-08-17T10:39:21;4.20;;;1.40;;
53533;SDS011;39421;53.204;6.568;2023-08-17T10:41:50;8.30;;;1.77;;
53533;SDS011;39421;53.204;6.568;2023-08-17T10:47:18;4.55;;;1.45;;
53533;SDS011;39421;53.204;6.568;2023-08-17T10:49:44;7.10;;;1.60;;
53533;SDS011;39421;53.204;6.568;2023-08-17T10:52:10;5.78;;;1.60;;
53533;SDS011;39421;53.204;6.568;2023-08-17T10:54:37;5.65;;;1.60;;
53533;SDS011;39421;53.204;6.568;2023-08-17T10:57:27;7.28;;;1.60;;
53533;SDS011;39421;53.204;6.568;2023-08-17T11:00:13;5.35;;;1.50;;
53533;SDS011;39421;53.204;6.568;2023-08-17T11:02:40;7.65;;;1.70;;
53533;SDS011;39421;53.204;6.568;2023-08-17T11:05:09;3.87;;;1.53;;
53533;SDS011;39421;53.204;6.568;2023-08-17T11:07:41;5.30;;;1.70;;
53533;SDS011;39421;53.204;6.568;2023-08-17T11:10:50;11.48;;;1.95;;
53533;SDS011;39421;53.204;6.568;2023-08-17T11:12:57;6.90;;;1.77;;
53533;SDS011;39421;53.204;6.568;2023-08-17T11:15:37;5.82;;;1.70;;
53533;SDS011;39421;53.204;6.568;2023-08-17T11:18:04;4.73;;;1.57;;
53533;SDS011;39421;53.204;6.568;2023-08-17T11:20:30;4.20;;;1.70;;
53533;SDS011;39421;53.204;6.568;2023-08-17T11:22:57;4.57;;;1.60;;
53533;SDS011;39421;53.204;6.568;2023-08-17T11:25:25;5.57;;;1.83;;
53533;SDS011;39421;53.204;6.568;2023-08-17T11:27:52;6.85;;;1.70;;
53533;SDS011;39421;53.204;6.568;2023-08-17T11:30:18;7.75;;;1.95;;
53533;SDS011;39421;53.204;6.568;2023-08-17T11:32:45;5.20;;;1.77;;
53533;SDS011;39421;53.204;6.568;2023-08-17T11:35:11;5.85;;;1.77;;
53533;SDS011;39421;53.204;6.568;2023-08-17T11:37:37;6.30;;;1.88;;
53533;SDS011;39421;53.204;6.568;2023-08-17T11:40:03;5.97;;;1.77;;
53533;SDS011;39421;53.204;6.568;2023-08-17T11:42:30;5.38;;;1.70;;
53533;SDS011;39421;53.204;6.568;2023-08-17T11:44:56;5.10;;;1.65;;
53533;SDS011;39421;53.204;6.568;2023-08-17T11:47:22;4.78;;;1.67;;
53533;SDS011;39421;53.204;6.568;2023-08-17T11:49:48;6.00;;;1.90;;
53533;SDS011;39421;53.204;6.568;2023-08-17T11:52:16;6.78;;;2.10;;
53533;SDS011;39421;53.204;6.568;2023-08-17T11:54:42;5.47;;;2.00;;
53533;SDS011;39421;53.204;6.568;2023-08-17T11:57:08;5.93;;;1.90;;
53533;SDS011;39421;53.204;6.568;2023-08-17T11:59:35;6.47;;;1.90;;
53533;SDS011;39421;53.204;6.568;2023-08-17T12:02:01;5.18;;;2.00;;
53533;SDS011;39421;53.204;6.568;2023-08-17T12:04:28;5.47;;;1.80;;
53533;SDS011;39421;53.204;6.568;2023-08-17T12:06:54;6.10;;;2.13;;
53533;SDS011;39421;53.204;6.568;2023-08-17T12:09:21;7.07;;;2.08;;
53533;SDS011;39421;53.204;6.568;2023-08-17T12:11:48;6.47;;;1.87;;
53533;SDS011;39421;53.204;6.568;2023-08-17T12:14:14;4.47;;;1.83;;
53533;SDS011;39421;53.204;6.568;2023-08-17T12:16:49;5.50;;;2.10;;
53533;SDS011;39421;53.204;6.568;2023-08-17T12:19:15;5.53;;;1.90;;
53533;SDS011;39421;53.204;6.568;2023-08-17T12:21:42;7.00;;;1.80;;
53533;SDS011;39421;53.204;6.568;2023-08-17T12:24:08;8.30;;;2.00;;
53533;SDS011;39421;53.204;6.568;2023-08-17T12:26:40;5.80;;;2.20;;
53533;SDS011;39421;53.204;6.568;2023-08-17T12:29:08;8.13;;;1.92;;
53533;SDS011;39421;53.204;6.568;2023-08-17T12:31:34;4.80;;;1.95;;
53533;SDS011;39421;53.204;6.568;2023-08-17T12:34:00;5.40;;;2.00;;
53533;SDS011;39421;53.204;6.568;2023-08-17T12:36:26;6.30;;;1.90;;
53533;SDS011;39421;53.204;6.568;2023-08-17T12:38:54;7.13;;;2.30;;
53533;SDS011;39421;53.204;6.568;2023-08-17T12:41:20;6.65;;;1.95;;
53533;SDS011;39421;53.204;6.568;2023-08-17T12:43:46;7.95;;;2.20;;
53533;SDS011;39421;53.204;6.568;2023-08-17T12:46:15;6.45;;;2.17;;
53533;SDS011;39421;53.204;6.568;2023-08-17T12:48:41;6.68;;;2.22;;
53533;SDS011;39421;53.204;6.568;2023-08-17T12:51:09;5.68;;;2.05;;
53533;SDS011;39421;53.204;6.568;2023-08-17T12:53:35;6.70;;;2.35;;
53533;SDS011;39421;53.204;6.568;2023-08-17T12:56:01;4.65;;;2.10;;
53533;SDS011;39421;53.204;6.568;2023-08-17T12:58:29;5.63;;;2.03;;
53533;SDS011;39421;53.204;6.568;2023-08-17T13:00:55;7.57;;;2.47;;
53533;SDS011;39421;53.204;6.568;2023-08-17T13:03:22;5.40;;;1.98;;
53533;SDS011;39421;53.204;6.568;2023-08-17T13:05:50;5.20;;;2.08;;
53533;SDS011;39421;53.204;6.568;2023-08-17T13:08:16;7.47;;;2.17;;
53533;SDS011;39421;53.204;6.568;2023-08-17T13:10:51;5.75;;;2.30;;
53533;SDS011;39421;53.204;6.568;2023-08-17T13:13:17;6.63;;;2.30;;
53533;SDS011;39421;53.204;6.568;2023-08-17T13:15:43;5.00;;;1.90;;
53533;SDS011;39421;53.204;6.568;2023-08-17T13:18:09;6.40;;;2.40;;
53533;SDS011;39421;53.204;6.568;2023-08-17T13:20:36;5.80;;;2.03;;
53533;SDS011;39421;53.204;6.568;2023-08-17T13:23:09;5.85;;;2.10;;
53533;SDS011;39421;53.204;6.568;2023-08-17T13:25:36;6.07;;;2.20;;
53533;SDS011;39421;53.204;6.568;2023-08-17T13:28:02;6.75;;;2.17;;
53533;SDS011;39421;53.204;6.568;2023-08-17T13:30:28;7.10;;;2.17;;
53533;SDS011;39421;53.204;6.568;2023-08-17T13:32:57;6.18;;;2.20;;
53533;SDS011;39421;53.204;6.568;2023-08-17T13:35:24;5.88;;;2.22;;
53533;SDS011;39421;53.204;6.568;2023-08-17T13:37:56;6.75;;;2.08;;
53533;SDS011;39421;53.204;6.568;2023-08-17T13:40:22;7.57;;;2.22;;
53533;SDS011;39421;53.204;6.568;2023-08-17T13:42:48;7.57;;;2.00;;
53533;SDS011;39421;53.204;6.568;2023-08-17T13:45:16;7.57;;;2.25;;
53533;SDS011;39421;53.204;6.568;2023-08-17T13:47:42;5.28;;;2.10;;
53533;SDS011;39421;53.204;6.568;2023-08-17T13:50:09;8.05;;;2.65;;
53533;SDS011;39421;53.204;6.568;2023-08-17T13:52:35;6.60;;;2.30;;
53533;SDS011;39421;53.204;6.568;2023-08-17T13:55:01;8.30;;;2.70;;
53533;SDS011;39421;53.204;6.568;2023-08-17T13:57:27;8.43;;;2.50;;
53533;SDS011;39421;53.204;6.568;2023-08-17T13:59:53;6.50;;;2.30;;
53533;SDS011;39421;53.204;6.568;2023-08-17T14:02:19;7.78;;;2.33;;
53533;SDS011;39421;53.204;6.568;2023-08-17T14:04:47;6.15;;;2.05;;
53533;SDS011;39421;53.204;6.568;2023-08-17T14:07:13;6.47;;;2.40;;
53533;SDS011;39421;53.204;6.568;2023-08-17T14:09:39;7.07;;;2.42;;
53533;SDS011;39421;53.204;6.568;2023-08-17T14:12:06;5.97;;;2.60;;
53533;SDS011;39421;53.204;6.568;2023-08-17T14:14:32;5.43;;;2.30;;
53533;SDS011;39421;53.204;6.568;2023-08-17T14:16:58;6.85;;;2.50;;
53533;SDS011;39421;53.204;6.568;2023-08-17T14:19:24;7.95;;;2.58;;
53533;SDS011;39421;53.204;6.568;2023-08-17T14:21:50;7.75;;;2.75;;
53533;SDS011;39421;53.204;6.568;2023-08-17T14:24:17;8.40;;;2.58;;
53533;SDS011;39421;53.204;6.568;2023-08-17T14:26:47;7.15;;;2.42;;
53533;SDS011;39421;53.204;6.568;2023-08-17T14:29:14;7.28;;;2.33;;
53533;SDS011;39421;53.204;6.568;2023-08-17T14:31:40;5.88;;;2.67;;
53533;SDS011;39421;53.204;6.568;2023-08-17T14:34:06;9.35;;;2.38;;
53533;SDS011;39421;53.204;6.568;2023-08-17T14:36:33;6.68;;;2.60;;
53533;SDS011;39421;53.204;6.568;2023-08-17T14:38:59;7.32;;;2.47;;
53533;SDS011;39421;53.204;6.568;2023-08-17T14:41:26;5.50;;;2.33;;
53533;SDS011;39421;53.204;6.568;2023-08-17T14:43:57;5.63;;;2.25;;
53533;SDS011;39421;53.204;6.568;2023-08-17T14:46:25;8.20;;;2.53;;
53533;SDS011;39421;53.204;6.568;2023-08-17T14:48:51;5.82;;;2.58;;
53533;SDS011;39421;53.204;6.568;2023-08-17T14:51:17;8.53;;;2.53;;
53533;SDS011;39421;53.204;6.568;2023-08-17T14:53:43;5.35;;;2.25;;